Home > Products > Valid Products > TAF

000
FTUS43 KJKL 252300
TAFLOZ
TAF
KLOZ 252320Z 2600/2624 23004KT P6SM SKC
     FM261000 00000KT 4SM BR SKC
     FM261300 VRB03KT P6SM SKC=



000
FTUS43 KJKL 252300
TAFSME
TAF
KSME 252320Z 2600/2624 23004KT P6SM SKC
     FM260900 00000KT 4SM BR SKC
     FM261300 VRB03KT P6SM SKC=



000
FTUS43 KJKL 252300
TAFJKL
TAF
KJKL 252320Z 2600/2624 VRB03KT P6SM SKC=



000
FTUS43 KJKL 251800 AAA
TAFJKL
TAF AMD
KJKL 251805Z 2518/2618 26005KT P6SM SCT030 BKN045
      TEMPO 2518/2522 BKN030
     FM260600 30004KT P6SM SCT020=



000
FTUS43 KJKL 251800 AAA
TAFJKL
TAF AMD
KJKL 251805Z 2518/2618 26005KT P6SM SCT030 BKN045
      TEMPO 2518/2522 BKN030
     FM260600 30004KT P6SM SCT020=



000
FTUS43 KJKL 251700
TAFLOZ
TAF
KLOZ 251735Z 2518/2618 24006KT P6SM SCT030 BKN045
     FM260600 00000KT P6SM SCT020
     FM261000 00000KT 4SM BR SCT020
     FM261300 VRB03KT P6SM FEW020=



000
FTUS43 KJKL 251700
TAFSME
TAF
KSME 251735Z 2518/2618 24006KT P6SM SCT030 BKN045
     FM260600 00000KT P6SM SCT020
     FM260900 00000KT 4SM BR SCT020
     FM261300 VRB03KT P6SM FEW020=



000
FTUS43 KJKL 251700
TAFJKL
TAF
KJKL 251735Z 2518/2618 26005KT P6SM SCT030 BKN045
      TEMPO 2519/2522 BKN030
     FM260600 30004KT P6SM SCT020=



000
FTUS43 KJKL 251700
TAFJKL
TAF
KJKL 251735Z 2518/2618 26005KT P6SM SCT030 BKN045
      TEMPO 2519/2522 BKN030
     FM260600 30004KT P6SM SCT020=



000
FTUS43 KJKL 251700
TAFLOZ
TAF
KLOZ 251735Z 2518/2618 24006KT P6SM SCT030 BKN045
     FM260600 00000KT P6SM SCT020
     FM261000 00000KT 4SM BR SCT020
     FM261300 VRB03KT P6SM FEW020=



000
FTUS43 KJKL 251700
TAFSME
TAF
KSME 251735Z 2518/2618 24006KT P6SM SCT030 BKN045
     FM260600 00000KT P6SM SCT020
     FM260900 00000KT 4SM BR SCT020
     FM261300 VRB03KT P6SM FEW020=



000
FTUS43 KJKL 251100
TAFLOZ
TAF
KLOZ 251130Z 2512/2612 VRB03KT P6SM FEW250
     FM251500 23006KT P6SM SCT030 BKN050=



000
FTUS43 KJKL 251100
TAFJKL
TAF
KJKL 251130Z 2512/2612 VRB03KT P6SM FEW250
     FM251500 22004KT P6SM SCT030 BKN050=



000
FTUS43 KJKL 251100
TAFSME
TAF
KSME 251130Z 2512/2612 VRB03KT 4SM BR FEW250
      TEMPO 2512/2513 P6SM NSW
     FM251300 23006KT P6SM SCT030 BKN050=



000
FTUS43 KJKL 251100
TAFJKL
TAF
KJKL 251130Z 2512/2612 VRB03KT P6SM FEW250
     FM251500 22004KT P6SM SCT030 BKN050=



000
FTUS43 KJKL 251100
TAFLOZ
TAF
KLOZ 251130Z 2512/2612 VRB03KT P6SM FEW250
     FM251500 23006KT P6SM SCT030 BKN050=



000
FTUS43 KJKL 251100
TAFSME
TAF
KSME 251130Z 2512/2612 VRB03KT 4SM BR FEW250
      TEMPO 2512/2513 P6SM NSW
     FM251300 23006KT P6SM SCT030 BKN050=



000
FTUS43 KJKL 251000 AAA
TAFSME
TAF AMD
KSME 251023Z 2510/2606 VRB03KT 4SM BR FEW250
      TEMPO 2510/2513 P6SM NSW
     FM251300 23006KT P6SM SCT030 BKN050=



000
FTUS43 KJKL 250500
TAFLOZ
TAF
KLOZ 250536Z 2506/2606 VRB03KT P6SM FEW250
     FM251700 23006KT P6SM SCT030 BKN050=



000
FTUS43 KJKL 250500
TAFJKL
TAF
KJKL 250536Z 2506/2606 VRB03KT P6SM FEW250
     FM251800 22004KT P6SM SCT030 BKN050=



000
FTUS43 KJKL 250500
TAFSME
TAF
KSME 250536Z 2506/2606 VRB03KT 4SM BR FEW250
      TEMPO 2506/2509 P6SM NSW
     FM251000 VRB03KT 2SM BR SCT002
     FM251300 23006KT P6SM SCT030 BKN050=



000
FTUS43 KJKL 242300
TAFSME
TAF
KSME 242329Z 2500/2524 VRB03KT P6SM FEW250
     FM251700 23006KT P6SM SCT035 BKN070=



000
FTUS43 KJKL 242300
TAFJKL
TAF
KJKL 242329Z 2500/2524 VRB03KT P6SM FEW250
     FM251800 22004KT P6SM SCT035 BKN070=



000
FTUS43 KJKL 242300
TAFLOZ
TAF
KLOZ 242329Z 2500/2524 VRB03KT P6SM FEW250
     FM251700 23006KT P6SM SCT035 BKN070=



000
FTUS43 KJKL 241700
TAFLOZ
TAF
KLOZ 241735Z 2418/2518 VRB03KT P6SM FEW110 SCT250
     FM251400 23006KT P6SM SCT035 SCT070=



000
FTUS43 KJKL 241700
TAFSME
TAF
KSME 241735Z 2418/2518 VRB03KT P6SM FEW110 SCT250
     FM251400 23006KT P6SM SCT035 SCT070=



000
FTUS43 KJKL 241700
TAFJKL
TAF
KJKL 241735Z 2418/2518 VRB03KT P6SM FEW110 SCT250
     FM251400 22004KT P6SM SCT035 SCT070=



000
FTUS43 KJKL 241100
TAFSME
TAF
KSME 241127Z 2412/2512 VRB03KT P6SM SCT005 BKN200
     FM241400 34005KT P6SM SCT120=



000
FTUS43 KJKL 241100
TAFLOZ
TAF
KLOZ 241127Z 2412/2512 VRB03KT P6SM BKN200
     FM241400 34006KT P6SM SCT120=



000
FTUS43 KJKL 241100
TAFJKL
TAF
KJKL 241127Z 2412/2512 VRB03KT P6SM BKN200
     FM241400 35004KT P6SM FEW120 SCT250=



000
FTUS43 KJKL 240600 AAA
TAFSME
TAF AMD
KSME 240653Z 2407/2506 VRB03KT P6SM SCT005 BKN200
      TEMPO 2407/2410 00000KT 2SM BR BKN002
     FM241000 00000KT 4SM BR SCT002 BKN200
     FM241400 34005KT P6SM SCT120=



000
FTUS43 KJKL 240500
TAFJKL
TAF
KJKL 240526Z 2406/2506 VRB03KT P6SM BKN200
     FM241400 35004KT P6SM FEW120 SCT250=



000
FTUS43 KJKL 240500
TAFLOZ
TAF
KLOZ 240526Z 2406/2506 VRB03KT P6SM BKN200
     FM241400 34006KT P6SM SCT120=



000
FTUS43 KJKL 240500
TAFSME
TAF
KSME 240526Z 2406/2506 VRB03KT P6SM BKN200
     FM240900 00000KT 4SM BR BKN200
     FM241400 34005KT P6SM SCT120=



000
FTUS43 KJKL 232300
TAFJKL
TAF
KJKL 232331Z 2400/2424 VRB03KT P6SM BKN200
     FM241400 35004KT P6SM FEW150 SCT250=



000
FTUS43 KJKL 232300
TAFLOZ
TAF
KLOZ 232331Z 2400/2424 VRB03KT P6SM BKN200
     FM241400 34006KT P6SM FEW150 SCT250=



000
FTUS43 KJKL 232300
TAFSME
TAF
KSME 232331Z 2400/2424 VRB03KT P6SM BKN200
     FM240900 00000KT 4SM BR BKN200
     FM241400 34005KT P6SM FEW150 SCT250=



000
FTUS43 KJKL 231700 CCA
TAFSME
TAF COR
KSME 231741Z 2318/2418 06007KT P6SM SKC
     FM232100 VRB03KT P6SM SCT250
     FM240400 00000KT P6SM BKN200
     FM240900 00000KT 4SM BR BKN200
     FM241400 34005KT P6SM FEW120 SCT250=



000
FTUS43 KJKL 231700 CCA
TAFSME
TAF COR
KSME 231741Z 2318/2418 06007KT P6SM SKC
     FM232100 VRB03KT P6SM SCT250
     FM240400 00000KT P6SM BKN200
     FM240900 00000KT 4SM BR BKN200
     FM241400 34005KT P6SM FEW120 SCT250=



000
FTUS43 KJKL 231700
TAFLOZ
TAF
KLOZ 231737Z 2318/2418 07007KT P6SM SKC
     FM232100 VRB04KT P6SM SCT250
     FM240400 00000KT P6SM BKN200
     FM241400 34006KT P6SM FEW120 SCT250=



000
FTUS43 KJKL 231700
TAFSME
TAF
KSME 231737Z 2318/2418 06007KT P6SM SKC
     FM232100 VRB03KT P6SM SCT250
     FM240400 00000KT P6SM BKN200
     FM241400 34005KT P6SM FEW120 SCT250=



000
FTUS43 KJKL 231700
TAFJKL
TAF
KJKL 231737Z 2318/2418 06005KT P6SM SCT030
     FM232100 VRB04KT P6SM SCT250
     FM240500 00000KT P6SM BKN200
     FM241400 35004KT P6SM FEW120 SCT250=



000
FTUS43 KJKL 231100
TAFJKL
TAF
KJKL 231120Z 2312/2412 VRB03KT P6SM OVC025
     FM231300 VRB03KT P6SM BKN030
     FM231500 VRB03KT P6SM SCT030
     FM232100 VRB03KT P6SM SKC
     FM240600 00000KT P6SM BKN200=



000
FTUS43 KJKL 231100
TAFLOZ
TAF
KLOZ 231120Z 2312/2412 VRB03KT P6SM OVC025
     FM231500 VRB03KT P6SM BKN030
     FM231600 VRB03KT P6SM SCT030
     FM232100 VRB03KT P6SM SKC
     FM240600 00000KT P6SM BKN200=



000
FTUS43 KJKL 231100
TAFSME
TAF
KSME 231120Z 2312/2412 VRB03KT P6SM OVC025
     FM231500 VRB03KT P6SM BKN030
     FM231600 VRB03KT P6SM SCT030
     FM232100 VRB03KT P6SM SKC
     FM240600 00000KT P6SM BKN200=



000
FTUS43 KJKL 230900 AAA
TAFLOZ
TAF AMD
KLOZ 230912Z 2309/2406 VRB03KT P6SM OVC025
     FM231300 VRB03KT P6SM SCT025 SCT050
     FM231600 VRB03KT P6SM FEW050=



000
FTUS43 KJKL 230900 AAA
TAFSME
TAF AMD
KSME 230910Z 2309/2406 VRB03KT P6SM OVC030
     FM231300 VRB03KT P6SM SCT030 SCT050=



000
FTUS43 KJKL 230500
TAFSME
TAF
KSME 230525Z 2306/2406 VRB03KT P6SM OVC030
     FM230900 VRB03KT P6SM SCT027 SCT050
     FM231300 VRB03KT P6SM FEW050=



000
FTUS43 KJKL 230500
TAFLOZ
TAF
KLOZ 230525Z 2306/2406 VRB03KT P6SM OVC025
     FM231000 VRB03KT P6SM SCT025 SCT050
     FM231400 VRB03KT P6SM FEW050=



000
FTUS43 KJKL 230500
TAFJKL
TAF
KJKL 230525Z 2306/2406 VRB03KT P6SM OVC020
     FM231300 VRB03KT P6SM SCT030 BKN040
     FM231600 VRB03KT P6SM FEW050=



    US Dept of Commerce
    National Oceanic and Atmospheric Administration
    National Weather Service
    1325 East West Highway
    Silver Spring, MD 20910
    Page Author: NWS Internet Services Team
Disclaimer
Information Quality
Credits
Glossary
Privacy Policy
Freedom of Information Act (FOIA)
About Us
Career Opportunities